createdAt,value
2019-02-25T00:00:10.588Z,3.20
2019-02-25T00:02:39.301Z,3.10
2019-02-25T00:05:08.669Z,3.00
2019-02-25T00:07:37.161Z,3.10
2019-02-25T00:10:08.570Z,3.10
2019-02-25T00:12:37.057Z,3.10
2019-02-25T00:15:08.227Z,3.20
2019-02-25T00:17:38.445Z,3.40
2019-02-25T00:20:10.067Z,3.60
2019-02-25T00:22:38.772Z,3.70
2019-02-25T00:25:10.523Z,3.80
2019-02-25T00:27:39.138Z,3.90
2019-02-25T00:30:13.476Z,3.90
2019-02-25T00:32:42.084Z,3.80
2019-02-25T00:35:10.715Z,3.60
2019-02-25T00:37:39.277Z,3.40
2019-02-25T00:40:13.147Z,3.00
2019-02-25T00:42:41.771Z,3.00
2019-02-25T00:45:12.609Z,3.10
2019-02-25T00:47:41.211Z,3.30
2019-02-25T00:50:14.889Z,3.50
2019-02-25T00:52:43.530Z,3.50
2019-02-25T00:55:12.999Z,3.50
2019-02-25T00:57:41.502Z,3.60
2019-02-25T01:00:20.343Z,3.50
2019-02-25T01:02:49.249Z,3.40
2019-02-25T01:05:18.432Z,2.90
2019-02-25T01:07:47.065Z,2.60
2019-02-25T01:10:16.759Z,2.50
2019-02-25T01:12:46.410Z,2.50
2019-02-25T01:15:16.232Z,2.50
2019-02-25T01:17:44.897Z,2.30
2019-02-25T01:20:15.621Z,2.20
2019-02-25T01:22:44.234Z,2.20
2019-02-25T01:25:15.082Z,2.30
2019-02-25T01:27:43.668Z,2.50
2019-02-25T01:30:20.461Z,2.50
2019-02-25T01:32:49.035Z,2.50
2019-02-25T01:35:17.656Z,2.50
2019-02-25T01:37:46.186Z,2.40
2019-02-25T01:40:15.211Z,2.30
2019-02-25T01:42:43.749Z,2.30
2019-02-25T01:45:15.399Z,2.40
2019-02-25T01:47:43.867Z,2.60
2019-02-25T01:50:12.679Z,2.90
2019-02-25T01:52:41.233Z,3.00
2019-02-25T01:55:11.136Z,2.90
2019-02-25T01:57:39.864Z,2.80
2019-02-25T02:00:14.178Z,2.80
2019-02-25T02:02:42.789Z,2.80
2019-02-25T02:05:11.533Z,2.40
2019-02-25T02:07:40.172Z,2.20
2019-02-25T02:10:14.340Z,2.20
2019-02-25T02:12:42.944Z,2.10
2019-02-25T02:15:19.243Z,2.10
2019-02-25T02:17:47.878Z,2.00
2019-02-25T02:20:17.290Z,2.10
2019-02-25T02:22:45.971Z,2.20
2019-02-25T02:25:14.905Z,2.30
2019-02-25T02:27:43.558Z,2.30
2019-02-25T02:30:15.131Z,2.30
2019-02-25T02:32:43.754Z,2.10
2019-02-25T02:35:12.439Z,2.10
2019-02-25T02:37:41.021Z,2.10
2019-02-25T02:40:11.795Z,2.30
2019-02-25T02:42:43.541Z,2.50
2019-02-25T02:45:43.850Z,2.70
2019-02-25T02:48:24.181Z,2.70
2019-02-25T02:50:52.755Z,2.60
2019-02-25T02:53:21.240Z,2.40
2019-02-25T02:55:49.812Z,2.30
2019-02-25T02:58:18.287Z,2.00
2019-02-25T03:00:46.848Z,1.70
2019-02-25T03:03:15.317Z,1.60
2019-02-25T03:05:43.879Z,1.60
2019-02-25T03:08:12.434Z,1.60
2019-02-25T03:10:41.004Z,1.60
2019-02-25T03:13:09.539Z,1.60
2019-02-25T03:15:38.056Z,1.50
2019-02-25T03:18:06.594Z,1.60
2019-02-25T03:20:35.163Z,1.70
2019-02-25T03:23:03.879Z,2.00
2019-02-25T03:25:32.343Z,2.10
2019-02-25T03:28:00.836Z,2.10
2019-02-25T03:30:29.321Z,2.20
2019-02-25T03:32:57.890Z,2.20
2019-02-25T03:35:26.431Z,2.10
2019-02-25T03:37:54.992Z,2.20
2019-02-25T03:40:24.307Z,2.30
2019-02-25T03:42:52.918Z,2.30
2019-02-25T03:45:21.509Z,2.30
2019-02-25T03:47:50.051Z,2.20
2019-02-25T03:50:18.669Z,1.90
2019-02-25T03:52:47.376Z,1.70
2019-02-25T03:55:18.040Z,1.60
2019-02-25T03:57:46.844Z,1.50
2019-02-25T04:00:20.937Z,1.50
2019-02-25T04:02:49.546Z,1.60
2019-02-25T04:05:18.158Z,1.70
2019-02-25T04:07:46.863Z,1.90
2019-02-25T04:10:15.739Z,2.00
2019-02-25T04:12:44.376Z,2.00
2019-02-25T04:15:19.565Z,2.00
2019-02-25T04:17:48.282Z,1.90
2019-02-25T04:20:17.756Z,2.00
2019-02-25T04:22:46.282Z,2.00
2019-02-25T04:25:14.924Z,1.90
2019-02-25T04:27:43.534Z,1.80
2019-02-25T04:30:16.534Z,1.70
2019-02-25T04:32:45.117Z,1.70
2019-02-25T04:35:14.203Z,1.70
2019-02-25T04:37:42.833Z,1.70
2019-02-25T04:40:12.950Z,1.70
2019-02-25T04:42:41.665Z,1.80
2019-02-25T04:45:15.668Z,1.70
2019-02-25T04:47:44.308Z,1.70
2019-02-25T04:50:13.686Z,1.90
2019-02-25T04:52:42.319Z,1.80
2019-02-25T04:55:12.160Z,1.60
2019-02-25T04:57:40.975Z,1.50
2019-02-25T05:00:16.877Z,1.50
2019-02-25T05:02:45.439Z,1.60
2019-02-25T05:05:14.037Z,1.50
2019-02-25T05:07:42.669Z,1.50
2019-02-25T05:10:15.300Z,1.50
2019-02-25T05:12:45.507Z,1.40
2019-02-25T05:15:15.752Z,1.40
2019-02-25T05:17:44.253Z,1.60
2019-02-25T05:20:13.034Z,1.50
2019-02-25T05:22:41.535Z,1.40
2019-02-25T05:25:11.906Z,1.30
2019-02-25T05:27:40.417Z,1.30
2019-02-25T05:30:16.709Z,1.40
2019-02-25T05:32:45.220Z,1.40
2019-02-25T05:35:14.217Z,1.50
2019-02-25T05:37:42.878Z,1.60
2019-02-25T05:40:16.249Z,1.60
2019-02-25T05:42:44.787Z,1.50
2019-02-25T05:45:14.475Z,1.50
2019-02-25T05:47:43.043Z,1.50
2019-02-25T05:50:19.471Z,1.60
2019-02-25T05:52:48.035Z,1.50
2019-02-25T05:55:17.169Z,1.40
2019-02-25T05:57:46.046Z,1.30
2019-02-25T06:00:19.338Z,1.30
2019-02-25T06:02:47.976Z,1.30
2019-02-25T06:05:16.562Z,1.30
2019-02-25T06:07:45.083Z,1.30
2019-02-25T06:10:14.401Z,1.30
2019-02-25T06:12:42.996Z,1.20
2019-02-25T06:15:16.526Z,1.20
2019-02-25T06:17:45.193Z,1.30
2019-02-25T06:20:15.620Z,1.50
2019-02-25T06:22:44.186Z,1.50
2019-02-25T06:25:13.907Z,1.50
2019-02-25T06:27:42.613Z,1.60
2019-02-25T06:30:16.484Z,1.60
2019-02-25T06:32:44.993Z,1.60
2019-02-25T06:35:13.794Z,1.70
2019-02-25T06:37:42.332Z,1.60
2019-02-25T06:40:16.422Z,1.60
2019-02-25T06:42:44.942Z,1.70
2019-02-25T06:45:25.398Z,1.60
2019-02-25T06:47:53.899Z,1.40
2019-02-25T06:50:22.455Z,1.30
2019-02-25T06:52:50.984Z,1.40
2019-02-25T06:55:19.551Z,1.50
2019-02-25T06:57:48.020Z,1.50
2019-02-25T07:00:21.534Z,1.70
2019-02-25T07:02:50.075Z,2.10
2019-02-25T07:05:26.648Z,2.40
2019-02-25T07:07:56.880Z,2.50
2019-02-25T07:10:35.766Z,2.70
2019-02-25T07:13:21.085Z,3.20
2019-02-25T07:15:51.282Z,3.60
2019-02-25T07:18:21.401Z,3.50
2019-02-25T07:20:54.579Z,2.80
2019-02-25T07:23:27.652Z,3.00
2019-02-25T07:26:00.562Z,3.20
2019-02-25T07:28:30.891Z,2.80
2019-02-25T07:31:01.187Z,3.10
2019-02-25T07:33:49.779Z,3.40
2019-02-25T07:36:35.344Z,3.50
2019-02-25T07:39:16.209Z,3.60
2019-02-25T07:41:46.502Z,3.40
2019-02-25T07:44:19.497Z,3.40
2019-02-25T07:46:52.512Z,3.40
2019-02-25T07:49:46.556Z,3.90
2019-02-25T07:52:32.026Z,4.20
2019-02-25T07:55:05.211Z,4.30
2019-02-25T07:57:35.428Z,4.60
2019-02-25T08:00:06.925Z,4.60
2019-02-25T08:02:53.196Z,4.80
2019-02-25T08:05:32.381Z,5.10
2019-02-25T08:08:02.610Z,5.20
2019-02-25T08:10:35.668Z,5.60
2019-02-25T08:13:06.094Z,6.00
2019-02-25T08:15:52.330Z,6.10
2019-02-25T08:18:22.617Z,6.20
2019-02-25T08:20:52.916Z,5.90
2019-02-25T08:23:25.622Z,5.60
2019-02-25T08:26:14.297Z,5.70
2019-02-25T08:28:44.412Z,5.70
2019-02-25T08:31:23.435Z,5.90
2019-02-25T08:33:59.861Z,6.50
2019-02-25T08:37:02.418Z,6.50
2019-02-25T08:39:30.895Z,7.30
2019-02-25T08:42:04.133Z,7.00
2019-02-25T08:44:37.542Z,6.30
2019-02-25T08:47:07.807Z,7.40
2019-02-25T08:49:38.099Z,7.60
2019-02-25T08:52:06.827Z,8.00
2019-02-25T08:54:35.551Z,8.30
2019-02-25T08:57:04.283Z,8.60
2019-02-25T08:59:33.144Z,9.20
2019-02-25T09:02:01.875Z,9.40
2019-02-25T09:04:30.546Z,9.50
2019-02-25T09:06:59.243Z,9.70
2019-02-25T09:09:27.845Z,9.80
2019-02-25T09:11:56.517Z,9.80
2019-02-25T09:14:25.087Z,9.90
2019-02-25T09:16:53.674Z,10.30
2019-02-25T09:19:22.208Z,10.10
2019-02-25T09:21:50.769Z,10.50
2019-02-25T09:24:19.351Z,10.90
2019-02-25T09:26:47.875Z,10.90
2019-02-25T09:29:16.425Z,10.70
2019-02-25T09:31:45.098Z,10.50
2019-02-25T09:34:13.729Z,10.80
2019-02-25T09:36:42.264Z,11.50
2019-02-25T09:39:11.384Z,12.00
2019-02-25T09:41:39.991Z,12.20
2019-02-25T09:44:08.645Z,12.20
2019-02-25T09:46:37.259Z,12.30
2019-02-25T09:49:05.907Z,12.80
2019-02-25T09:51:34.503Z,12.40
2019-02-25T09:54:03.085Z,11.90
2019-02-25T09:56:31.638Z,11.60
2019-02-25T09:59:00.304Z,11.30
2019-02-25T10:01:29.019Z,11.60
2019-02-25T10:03:57.623Z,12.00
2019-02-25T10:06:26.305Z,12.20
2019-02-25T10:08:55.023Z,12.80
2019-02-25T10:11:23.560Z,12.30
2019-02-25T10:13:52.142Z,12.30
2019-02-25T10:16:20.719Z,13.00
2019-02-25T10:18:49.329Z,13.30
2019-02-25T10:21:17.887Z,13.30
2019-02-25T10:23:46.700Z,13.70
2019-02-25T10:26:15.299Z,13.50
2019-02-25T10:28:43.873Z,13.90
2019-02-25T10:31:13.178Z,13.60
2019-02-25T10:33:42.593Z,13.50
2019-02-25T10:36:11.461Z,13.30
2019-02-25T10:38:40.115Z,13.40
2019-02-25T10:41:08.823Z,13.60
2019-02-25T10:43:37.401Z,13.40
2019-02-25T10:46:06.998Z,14.00
2019-02-25T10:48:36.070Z,14.20
2019-02-25T10:51:06.548Z,14.30
2019-02-25T10:53:35.020Z,14.40
2019-02-25T10:56:06.677Z,14.30
2019-02-25T10:58:36.010Z,14.80
2019-02-25T11:01:07.214Z,15.20
2019-02-25T11:03:39.820Z,15.10
2019-02-25T11:06:08.566Z,15.60
2019-02-25T11:08:39.413Z,15.00
2019-02-25T11:11:10.636Z,15.60
2019-02-25T11:13:39.235Z,15.70
2019-02-25T11:16:09.714Z,15.90
2019-02-25T11:18:38.054Z,16.40
2019-02-25T11:21:08.422Z,16.50
2019-02-25T11:23:37.111Z,15.60
2019-02-25T11:26:05.651Z,16.10
2019-02-25T11:28:36.140Z,16.70
2019-02-25T11:31:04.700Z,16.00
2019-02-25T11:33:34.379Z,16.30
2019-02-25T11:36:03.143Z,16.30
2019-02-25T11:38:36.683Z,16.30
2019-02-25T11:41:04.338Z,16.10
2019-02-25T11:43:32.825Z,16.10
2019-02-25T11:46:01.543Z,16.10
2019-02-25T11:48:30.256Z,16.00
2019-02-25T11:50:58.801Z,15.90
2019-02-25T11:53:27.397Z,16.60
2019-02-25T11:55:56.037Z,16.20
2019-02-25T11:58:24.738Z,16.70
2019-02-25T12:00:53.496Z,16.80
2019-02-25T12:03:22.123Z,17.10
2019-02-25T12:05:52.502Z,15.80
2019-02-25T12:08:21.250Z,15.80
2019-02-25T12:10:49.897Z,16.80
2019-02-25T12:13:18.494Z,17.00
2019-02-25T12:15:47.028Z,17.00
2019-02-25T12:18:15.829Z,17.40
2019-02-25T12:20:44.471Z,17.30
2019-02-25T12:23:12.967Z,17.30
2019-02-25T12:25:41.502Z,17.90
2019-02-25T12:28:10.198Z,18.30
2019-02-25T12:30:38.916Z,17.30
2019-02-25T12:33:07.652Z,17.90
2019-02-25T12:35:36.239Z,18.10
2019-02-25T12:38:04.809Z,18.10
2019-02-25T12:40:33.279Z,17.30
2019-02-25T12:43:01.797Z,16.50
2019-02-25T12:45:31.444Z,16.30
2019-02-25T12:48:00.076Z,16.70
2019-02-25T12:50:28.760Z,17.20
2019-02-25T12:52:57.722Z,17.30
2019-02-25T12:55:26.256Z,17.20
2019-02-25T12:57:54.854Z,17.30
2019-02-25T13:00:24.469Z,17.10
2019-02-25T13:02:53.060Z,17.10
2019-02-25T13:05:23.499Z,17.50
2019-02-25T13:07:52.120Z,18.00
2019-02-25T13:10:20.802Z,17.90
2019-02-25T13:12:51.726Z,17.00
2019-02-25T13:15:23.260Z,17.10
2019-02-25T13:17:51.948Z,16.80
2019-02-25T13:20:20.617Z,17.00
2019-02-25T13:22:49.268Z,17.40
2019-02-25T13:25:20.532Z,16.90
2019-02-25T13:27:49.133Z,16.80
2019-02-25T13:30:18.185Z,17.10
2019-02-25T13:32:46.842Z,17.30
2019-02-25T13:35:15.963Z,17.70
2019-02-25T13:37:44.606Z,17.80
2019-02-25T13:40:15.560Z,17.80
2019-02-25T13:42:44.258Z,17.60
2019-02-25T13:45:18.326Z,17.70
2019-02-25T13:47:46.898Z,17.60
2019-02-25T13:50:16.388Z,17.70
2019-02-25T13:52:48.369Z,17.70
2019-02-25T13:55:18.266Z,17.80
2019-02-25T13:57:46.837Z,17.90
2019-02-25T14:00:22.872Z,17.60
2019-02-25T14:02:51.598Z,17.70
2019-02-25T14:05:20.887Z,17.80
2019-02-25T14:07:49.450Z,17.70
2019-02-25T14:10:19.020Z,17.60
2019-02-25T14:12:47.711Z,17.60
2019-02-25T14:15:18.816Z,17.60
2019-02-25T14:17:47.451Z,17.40
2019-02-25T14:20:20.534Z,17.40
2019-02-25T14:22:49.168Z,17.50
2019-02-25T14:25:26.343Z,17.70
2019-02-25T14:27:55.199Z,17.80
2019-02-25T14:30:25.110Z,17.90
2019-02-25T14:32:53.839Z,17.90
2019-02-25T14:35:30.691Z,17.60
2019-02-25T14:38:07.315Z,17.50
2019-02-25T14:40:32.495Z,17.70
2019-02-25T14:43:04.033Z,17.80
2019-02-25T14:45:34.274Z,17.50
2019-02-25T14:48:04.854Z,17.40
2019-02-25T14:50:32.484Z,17.30
2019-02-25T14:53:03.910Z,17.40
2019-02-25T14:55:31.651Z,17.40
2019-02-25T14:58:04.427Z,17.50
2019-02-25T15:00:34.341Z,17.40
2019-02-25T15:03:01.012Z,17.30
2019-02-25T15:05:29.623Z,17.20
2019-02-25T15:07:58.572Z,17.20
2019-02-25T15:10:29.651Z,17.40
2019-02-25T15:12:59.230Z,17.60
2019-02-25T15:15:27.693Z,17.50
2019-02-25T15:17:56.608Z,17.60
2019-02-25T15:20:26.193Z,17.60
2019-02-25T15:22:55.455Z,17.50
2019-02-25T15:25:24.140Z,17.30
2019-02-25T15:27:52.707Z,17.20
2019-02-25T15:30:28.197Z,17.30
2019-02-25T15:32:58.436Z,17.30
2019-02-25T15:35:29.285Z,17.20
2019-02-25T15:37:57.919Z,17.30
2019-02-25T15:40:27.409Z,17.40
2019-02-25T15:43:10.479Z,17.60
2019-02-25T15:45:40.638Z,17.70
2019-02-25T15:48:18.169Z,17.40
2019-02-25T15:50:48.555Z,17.40
2019-02-25T15:53:17.266Z,17.60
2019-02-25T15:55:45.891Z,17.40
2019-02-25T15:58:14.595Z,17.20
2019-02-25T16:00:44.780Z,17.20
2019-02-25T16:03:16.152Z,17.20
2019-02-25T16:05:44.616Z,17.30
2019-02-25T16:08:16.168Z,17.10
2019-02-25T16:10:43.859Z,17.00
2019-02-25T16:13:14.219Z,16.80
2019-02-25T16:15:42.830Z,16.70
2019-02-25T16:18:13.655Z,16.50
2019-02-25T16:20:45.946Z,16.40
2019-02-25T16:23:13.018Z,16.20
2019-02-25T16:25:41.889Z,16.20
2019-02-25T16:28:12.542Z,16.20
2019-02-25T16:30:42.403Z,16.30
2019-02-25T16:33:12.682Z,16.50
2019-02-25T16:35:43.051Z,16.60
2019-02-25T16:38:11.599Z,16.60
2019-02-25T16:40:40.280Z,16.50
2019-02-25T16:43:12.082Z,16.10
2019-02-25T16:45:41.941Z,15.80
2019-02-25T16:48:10.395Z,15.60
2019-02-25T16:50:39.856Z,15.40
2019-02-25T16:53:10.900Z,15.20
2019-02-25T16:55:40.496Z,14.90
2019-02-25T16:58:12.894Z,14.70
2019-02-25T17:00:41.765Z,14.60
2019-02-25T17:03:11.881Z,14.50
2019-02-25T17:05:42.830Z,14.30
2019-02-25T17:08:12.918Z,13.80
2019-02-25T17:10:41.579Z,13.70
2019-02-25T17:13:10.915Z,13.60
2019-02-25T17:15:40.422Z,13.50
2019-02-25T17:18:09.367Z,13.40
2019-02-25T17:20:38.049Z,13.30
2019-02-25T17:23:09.436Z,12.70
2019-02-25T17:25:38.577Z,12.50
2019-02-25T17:28:08.198Z,12.40
2019-02-25T17:30:38.574Z,12.40
2019-02-25T17:33:10.019Z,12.20
2019-02-25T17:35:39.074Z,12.00
2019-02-25T17:38:07.621Z,11.50
2019-02-25T17:40:36.261Z,11.10
2019-02-25T17:43:04.880Z,11.00
2019-02-25T17:45:34.479Z,10.80
2019-02-25T17:48:06.004Z,10.70
2019-02-25T17:50:37.044Z,10.70
2019-02-25T17:53:07.209Z,10.80
2019-02-25T17:55:36.290Z,10.90
2019-02-25T17:58:05.216Z,10.80
2019-02-25T18:00:37.429Z,10.70
2019-02-25T18:03:06.770Z,10.50
2019-02-25T18:05:36.414Z,10.40
2019-02-25T18:08:08.050Z,10.30
2019-02-25T18:10:37.347Z,10.30
2019-02-25T18:13:08.060Z,10.30
2019-02-25T18:15:36.312Z,10.30
2019-02-25T18:18:06.994Z,10.20
2019-02-25T18:20:36.632Z,10.20
2019-02-25T18:23:05.785Z,10.30
2019-02-25T18:25:34.506Z,10.40
2019-02-25T18:28:04.427Z,10.40
2019-02-25T18:30:33.612Z,10.00
2019-02-25T18:33:05.039Z,9.70
2019-02-25T18:35:35.735Z,9.40
2019-02-25T18:38:05.384Z,9.10
2019-02-25T18:40:35.577Z,8.90
2019-02-25T18:43:05.282Z,8.80
2019-02-25T18:45:35.618Z,8.80
2019-02-25T18:48:05.533Z,8.80
2019-02-25T18:50:34.241Z,8.80
2019-02-25T18:53:02.953Z,9.00
2019-02-25T18:55:34.113Z,9.20
2019-02-25T18:58:02.012Z,9.30
2019-02-25T19:00:37.081Z,9.40
2019-02-25T19:03:06.872Z,9.20
2019-02-25T19:05:35.590Z,9.00
2019-02-25T19:08:09.689Z,8.90
2019-02-25T19:10:41.290Z,8.70
2019-02-25T19:13:08.948Z,8.50
2019-02-25T19:15:37.524Z,8.70
2019-02-25T19:18:06.948Z,8.80
2019-02-25T19:20:36.718Z,8.90
2019-02-25T19:23:09.511Z,8.90
2019-02-25T19:25:36.182Z,9.00
2019-02-25T19:28:05.099Z,9.00
2019-02-25T19:30:34.510Z,8.90
2019-02-25T19:33:10.873Z,8.90
2019-02-25T19:35:36.050Z,8.70
2019-02-25T19:38:05.848Z,8.20
2019-02-25T19:40:38.204Z,7.90
2019-02-25T19:43:06.050Z,8.00
2019-02-25T19:45:36.413Z,8.10
2019-02-25T19:48:06.996Z,8.20
2019-02-25T19:50:39.237Z,8.40
2019-02-25T19:53:07.670Z,8.40
2019-02-25T19:55:38.257Z,8.30
2019-02-25T19:58:06.265Z,8.30
2019-02-25T20:00:35.947Z,8.10
2019-02-25T20:03:06.143Z,8.30
2019-02-25T20:05:38.950Z,8.00
2019-02-25T20:08:05.348Z,7.70
2019-02-25T20:10:34.191Z,7.50
2019-02-25T20:13:05.689Z,7.50
2019-02-25T20:15:33.203Z,7.60
2019-02-25T20:18:01.839Z,7.70
2019-02-25T20:20:36.279Z,7.70
2019-02-25T20:23:06.156Z,7.80
2019-02-25T20:25:35.123Z,7.80
2019-02-25T20:28:04.396Z,7.80
2019-02-25T20:30:33.035Z,7.80
2019-02-25T20:33:03.317Z,7.70
2019-02-25T20:35:31.854Z,7.50
2019-02-25T20:38:01.049Z,7.60
2019-02-25T20:40:32.857Z,7.60
2019-02-25T20:43:03.004Z,7.50
2019-02-25T20:45:35.827Z,7.50
2019-02-25T20:48:05.145Z,7.50
2019-02-25T20:50:33.915Z,7.50
2019-02-25T20:53:05.794Z,7.30
2019-02-25T20:55:34.549Z,6.80
2019-02-25T20:58:03.125Z,6.20
2019-02-25T21:00:34.880Z,5.90
2019-02-25T21:03:02.093Z,6.10
2019-02-25T21:05:30.661Z,6.30
2019-02-25T21:07:59.924Z,6.30
2019-02-25T21:10:30.570Z,6.10
2019-02-25T21:13:01.876Z,6.00
2019-02-25T21:15:33.385Z,5.90
2019-02-25T21:18:02.475Z,5.80
2019-02-25T21:20:31.466Z,5.80
2019-02-25T21:23:03.583Z,5.70
2019-02-25T21:25:31.438Z,5.70
2019-02-25T21:28:02.349Z,5.60
2019-02-25T21:30:30.759Z,5.60
2019-02-25T21:32:59.335Z,5.60
2019-02-25T21:35:30.183Z,5.50
2019-02-25T21:37:58.256Z,5.50
2019-02-25T21:40:29.429Z,5.50
2019-02-25T21:42:57.087Z,5.40
2019-02-25T21:45:28.983Z,5.30
2019-02-25T21:47:56.632Z,5.30
2019-02-25T21:50:28.491Z,5.10
2019-02-25T21:52:56.452Z,5.10
2019-02-25T21:55:27.477Z,5.20
2019-02-25T21:57:57.226Z,5.20
2019-02-25T22:00:31.948Z,5.10
2019-02-25T22:02:58.775Z,5.20
2019-02-25T22:05:27.317Z,5.50
2019-02-25T22:07:57.719Z,5.60
2019-02-25T22:10:26.004Z,5.70
2019-02-25T22:12:54.500Z,5.70
2019-02-25T22:15:23.039Z,5.70
2019-02-25T22:17:53.357Z,5.90
2019-02-25T22:20:24.306Z,5.80
2019-02-25T22:22:54.484Z,5.70
2019-02-25T22:25:25.043Z,5.60
2019-02-25T22:27:53.618Z,5.50
2019-02-25T22:30:22.413Z,5.50
2019-02-25T22:32:50.967Z,5.60
2019-02-25T22:35:19.570Z,5.60
2019-02-25T22:37:52.041Z,5.50
2019-02-25T22:40:18.473Z,5.60
2019-02-25T22:42:49.806Z,5.60
2019-02-25T22:45:19.636Z,5.10
2019-02-25T22:47:48.101Z,4.80
2019-02-25T22:50:16.753Z,4.80
2019-02-25T22:52:45.391Z,4.80
2019-02-25T22:55:15.305Z,4.80
2019-02-25T22:57:45.943Z,5.00
2019-02-25T23:00:34.392Z,5.20
2019-02-25T23:03:03.298Z,5.30
2019-02-25T23:05:32.278Z,5.10
2019-02-25T23:08:00.985Z,4.90
2019-02-25T23:10:30.124Z,4.50
2019-02-25T23:12:58.748Z,4.70
2019-02-25T23:15:30.200Z,4.60
2019-02-25T23:18:04.853Z,4.60
2019-02-25T23:20:29.518Z,4.50
2019-02-25T23:23:00.067Z,4.60
2019-02-25T23:25:29.181Z,4.70
2019-02-25T23:27:58.515Z,4.70
2019-02-25T23:30:27.918Z,4.60
2019-02-25T23:32:56.471Z,4.70
2019-02-25T23:35:25.423Z,4.70
2019-02-25T23:37:56.276Z,4.50
2019-02-25T23:40:24.299Z,4.30
2019-02-25T23:42:52.869Z,4.30
2019-02-25T23:45:23.159Z,4.30
2019-02-25T23:47:55.246Z,4.00
2019-02-25T23:50:21.816Z,4.00
2019-02-25T23:52:50.310Z,4.00
2019-02-25T23:55:21.474Z,4.20
2019-02-25T23:57:49.090Z,4.10
